• Join FlightAware (Why Join?)
  • Login
  • US Flag 
10:21AM EST


 

Airport Tracker/Info


-or-


 

Live Flight TrackerFlight Track Log ✈ N777NC ✈ 08-Jul-2013 ✈ KATL - KBNA

Flight Track Log - Related Links

Times and Time Zones

All times are in EDT time to prevent confusion due to time zone crossing. See the N777NC flight status page for this flight to view local times or setup timezone preferences in your user account.

Time Position Orientation Groundspeed Altitude Reporting Facility
EDT Latitude Longitude Course Direction KTS MPH feet Rate Location/Type
08:36AM 33.6500 -84.4667 347° North 174 200 2,300  Level Atlanta TRACON
08:37AM 33.6667 -84.5333 287° West 265 305 3,800 2,160 Climbing Atlanta TRACON
08:38AM 33.7333 -84.5833 328° Northwest 279 321 6,700 2,100 Climbing Atlanta TRACON
08:39AM 34.0089 -84.5157 349° North  Level FlightAware Approximate
08:39AM 33.8744 -84.5892 358° North 305 351 9,800  Level Atlanta Center
08:40AM 34.0968 -84.5372 347° North  Level FlightAware Approximate
08:40AM 33.9578 -84.5972 355° North 310 357 10,600  Level Atlanta Center
08:41AM 34.1891 -84.5635 347° North  Level FlightAware Approximate
08:41AM 34.0561 -84.5978 360° North 340 391 12,900  Level Atlanta Center
08:42AM 34.1561 -84.6036 357° North 357 411 13,900 480 Climbing Atlanta Center
08:43AM 34.2667 -84.6094 358° North 380 437 13,900  Level Atlanta Center
08:44AM 34.3856 -84.6153 358° North 388 447 14,000 840 Climbing Atlanta Center
08:45AM 34.4794 -84.6586 339° North 362 417 15,600 1,920 Climbing Atlanta Center
08:46AM 34.5478 -84.7525 311° West 347 399 17,900 2,040 Climbing Atlanta Center
08:47AM 34.6181 -84.8414 314° West 357 411 19,700 1,560 Climbing Atlanta Center
08:48AM 34.6947 -84.9181 321° Northwest 357 411 21,100 1,200 Climbing Atlanta Center
08:49AM 34.7736 -85.0022 319° Northwest 368 423 22,100 840 Climbing Atlanta Center
08:52AM 34.9467 -85.2169 315° West 406 467 24,000 540 Climbing Memphis Center
08:53AM 35.0344 -85.3231 315° West 430 495 24,000  Level Memphis Center
08:54AM 35.1300 -85.4189 321° Northwest 438 504 24,000 -780 Level Memphis Center
08:55AM 35.2250 -85.4997 325° Northwest 433 498 22,500 -1,680 Descending Memphis Center
08:56AM 35.3039 -85.5944 316° Northwest 410 472 20,700 -1,860 Descending Memphis Center
08:57AM 35.3700 -85.6900 310° West 384 442 18,800 -1,800 Descending Memphis Center
08:58AM 35.4422 -85.7828 314° West 379 436 17,100 -1,800 Descending Memphis Center
08:59AM 35.5169 -85.8806 313° West 384 442 15,200 -1,920 Descending Memphis Center
09:00AM 35.5886 -85.9661 316° Northwest 378 435 13,300 -1,800 Descending Memphis Center
09:01AM 35.6711 -86.0586 318° Northwest 370 426 11,600 -1,200 Descending Memphis Center
09:02AM 35.7406 -86.1394 317° Northwest 355 409 10,900 -300 Descending Memphis Center
09:03AM 35.7978 -86.2236 310° West 355 409 11,000 -60 Climbing Memphis Center
09:04AM 35.8592 -86.3153 310° West 355 409 10,800 -660 Descending Memphis Center
09:05AM 35.9158 -86.3894 313° West 323 372 9,700 -1,440 Descending Memphis Center
09:06AM 35.9681 -86.4611 312° West 294 338 8,000 -1,740 Descending Memphis Center
09:07AM 36.0183 -86.5333 311° West 281 323 6,300 -1,440 Descending Memphis Center
09:08AM 36.0800 -86.5767 330° Northwest 249 287 5,200 -1,440 Descending Memphis Center
09:09AM 36.1503 -86.5528 15° North 244 281 3,500 -1,260 Descending Memphis Center
09:10AM 36.2053 -86.5836 336° Northwest 199 229 2,700 -840 Descending Memphis Center
09:11AM 36.1833 -86.6667 252° West 139 160 1,400 -720 Descending Nashville TRACON
09:13AM 36.1358 -86.6975 208° Southwest 126 145 700 -540 Descending Memphis Center
09:15AM 36.1245 -86.6782 141° Southeast  Level Estimated
09:22AM 36.1245 -86.6782 141° Southeast  Level Estimated
09:23AM 36.1245 -86.6782 141° Southeast  Level Estimated
09:24AM 36.1245 -86.6782 141° Southeast  Level Estimated